createdAt,value
2019-04-27T00:00:15.913Z,0.00
2019-04-27T00:01:16.135Z,0.00
2019-04-27T00:02:18.205Z,0.00
2019-04-27T00:03:16.617Z,0.00
2019-04-27T00:04:19.217Z,0.00
2019-04-27T00:05:16.788Z,0.00
2019-04-27T00:06:17.037Z,0.00
2019-04-27T00:07:17.119Z,0.00
2019-04-27T00:08:17.345Z,0.00
2019-04-27T00:09:17.430Z,0.00
2019-04-27T00:10:20.465Z,0.00
2019-04-27T00:11:17.815Z,0.00
2019-04-27T00:12:22.850Z,0.00
2019-04-27T00:13:18.215Z,0.00
2019-04-27T00:14:18.415Z,0.00
2019-04-27T00:15:18.627Z,0.00
2019-04-27T00:16:18.854Z,0.00
2019-04-27T00:17:21.109Z,0.00
2019-04-27T00:18:19.138Z,0.00
2019-04-27T00:19:19.363Z,0.00
2019-04-27T00:20:21.659Z,0.00
2019-04-27T00:21:19.746Z,0.00
2019-04-27T00:22:19.941Z,0.00
2019-04-27T00:23:20.141Z,0.00
2019-04-27T00:24:20.359Z,0.00
2019-04-27T00:25:20.559Z,0.00
2019-04-27T00:26:20.757Z,0.00
2019-04-27T00:27:20.905Z,0.00
2019-04-27T00:28:20.976Z,0.00
2019-04-27T00:29:21.159Z,0.00
2019-04-27T00:30:21.360Z,0.00
2019-04-27T00:31:23.306Z,0.00
2019-04-27T00:32:23.128Z,0.00
2019-04-27T00:33:23.436Z,0.00
2019-04-27T00:34:23.574Z,0.00
2019-04-27T00:35:23.472Z,0.00
2019-04-27T00:36:23.281Z,0.00
2019-04-27T00:37:23.741Z,0.00
2019-04-27T00:38:23.335Z,0.00
2019-04-27T00:39:23.152Z,0.00
2019-04-27T00:40:23.626Z,0.00
2019-04-27T00:41:24.294Z,0.00
2019-04-27T00:42:23.671Z,0.00
2019-04-27T00:43:23.871Z,0.00
2019-04-27T00:44:24.128Z,0.00
2019-04-27T00:45:24.212Z,0.00
2019-04-27T00:46:24.330Z,0.00
2019-04-27T00:47:24.404Z,0.00
2019-04-27T00:48:24.590Z,0.00
2019-04-27T00:49:24.771Z,0.00
2019-04-27T00:50:25.007Z,0.00
2019-04-27T00:51:25.086Z,0.00
2019-04-27T00:52:25.283Z,0.00
2019-04-27T00:53:25.472Z,0.00
2019-04-27T00:54:25.650Z,0.00
2019-04-27T00:55:25.909Z,0.00
2019-04-27T00:56:26.363Z,0.00
2019-04-27T00:57:28.129Z,0.00
2019-04-27T00:58:26.381Z,0.00
2019-04-27T00:59:26.595Z,0.00
2019-04-27T01:00:26.797Z,0.00
2019-04-27T01:01:27.015Z,0.00
2019-04-27T01:02:27.202Z,0.00
2019-04-27T01:03:27.388Z,0.00
2019-04-27T01:04:27.594Z,0.00
2019-04-27T01:05:27.793Z,0.00
2019-04-27T01:06:27.903Z,0.00
2019-04-27T01:07:28.132Z,0.00
2019-04-27T01:08:28.194Z,0.00
2019-04-27T01:09:28.442Z,0.00
2019-04-27T01:10:28.507Z,0.00
2019-04-27T01:11:28.707Z,0.00
2019-04-27T01:12:28.908Z,0.00
2019-04-27T01:13:29.482Z,0.00
2019-04-27T01:14:29.294Z,0.00
2019-04-27T01:15:29.493Z,0.00
2019-04-27T01:16:29.683Z,0.00
2019-04-27T01:17:29.882Z,0.00
2019-04-27T01:18:30.120Z,0.00
2019-04-27T01:19:30.201Z,0.00
2019-04-27T01:20:30.391Z,0.00
2019-04-27T01:21:30.590Z,0.00
2019-04-27T01:22:30.769Z,0.00
2019-04-27T01:23:31.028Z,0.00
2019-04-27T01:24:31.107Z,0.00
2019-04-27T01:25:31.288Z,0.00
2019-04-27T01:26:31.481Z,0.00
2019-04-27T01:27:31.689Z,0.00
2019-04-27T01:28:31.890Z,0.00
2019-04-27T01:29:32.114Z,0.00
2019-04-27T01:30:32.201Z,0.00
2019-04-27T01:31:32.401Z,0.00
2019-04-27T01:32:33.960Z,0.00
2019-04-27T01:33:32.771Z,0.00
2019-04-27T01:34:32.959Z,0.00
2019-04-27T01:35:33.203Z,0.00
2019-04-27T01:36:33.264Z,0.00
2019-04-27T01:37:33.451Z,0.00
2019-04-27T01:38:33.665Z,0.00
2019-04-27T01:39:33.968Z,0.00
2019-04-27T01:40:34.028Z,0.00
2019-04-27T01:41:34.252Z,0.00
2019-04-27T01:42:34.327Z,0.00
2019-04-27T01:43:34.527Z,0.00
2019-04-27T01:44:34.708Z,0.00
2019-04-27T01:45:34.935Z,0.00
2019-04-27T01:46:35.002Z,0.00
2019-04-27T01:47:35.241Z,0.00
2019-04-27T01:48:35.319Z,0.00
2019-04-27T01:49:35.529Z,0.00
2019-04-27T01:50:35.708Z,0.00
2019-04-27T01:51:35.818Z,0.00
2019-04-27T01:52:36.008Z,0.00
2019-04-27T01:53:36.195Z,0.00
2019-04-27T01:54:36.384Z,0.00
2019-04-27T01:55:36.561Z,0.00
2019-04-27T01:56:36.757Z,0.00
2019-04-27T01:57:38.597Z,0.00
2019-04-27T01:58:38.815Z,0.00
2019-04-27T01:59:38.687Z,0.00
2019-04-27T02:00:37.535Z,0.00
2019-04-27T02:01:38.983Z,0.00
2019-04-27T02:02:39.284Z,0.00
2019-04-27T02:03:38.673Z,0.00
2019-04-27T02:04:39.546Z,0.00
2019-04-27T02:05:39.121Z,0.00
2019-04-27T02:06:38.631Z,0.00
2019-04-27T02:07:39.030Z,0.00
2019-04-27T02:08:40.307Z,0.00
2019-04-27T02:09:39.013Z,0.00
2019-04-27T02:10:39.671Z,0.00
2019-04-27T02:11:39.409Z,0.00
2019-04-27T02:12:39.771Z,0.00
2019-04-27T02:13:39.777Z,0.00
2019-04-27T02:14:39.847Z,0.00
2019-04-27T02:15:40.056Z,0.00
2019-04-27T02:16:40.184Z,0.00
2019-04-27T02:17:40.379Z,0.00
2019-04-27T02:18:40.594Z,0.00
2019-04-27T02:19:40.783Z,0.00
2019-04-27T02:20:40.985Z,0.00
2019-04-27T02:21:41.176Z,0.00
2019-04-27T02:22:41.369Z,0.00
2019-04-27T02:23:41.599Z,0.00
2019-04-27T02:24:41.788Z,0.00
2019-04-27T02:25:42.024Z,0.00
2019-04-27T02:26:42.259Z,0.00
2019-04-27T02:27:42.329Z,0.00
2019-04-27T02:28:42.515Z,0.00
2019-04-27T02:29:42.713Z,0.00
2019-04-27T02:30:42.899Z,0.00
2019-04-27T02:31:43.145Z,0.00
2019-04-27T02:32:43.210Z,0.00
2019-04-27T02:33:43.411Z,0.00
2019-04-27T02:34:43.579Z,0.00
2019-04-27T02:35:43.633Z,0.00
2019-04-27T02:36:43.831Z,0.00
2019-04-27T02:37:44.032Z,0.00
2019-04-27T02:38:44.221Z,0.00
2019-04-27T02:39:44.451Z,0.00
2019-04-27T02:40:44.634Z,0.00
2019-04-27T02:41:44.845Z,0.00
2019-04-27T02:42:45.091Z,0.00
2019-04-27T02:43:45.168Z,0.00
2019-04-27T02:44:45.348Z,0.00
2019-04-27T02:45:45.550Z,0.00
2019-04-27T02:46:45.748Z,0.00
2019-04-27T02:47:45.963Z,0.00
2019-04-27T02:48:58.791Z,0.00
2019-04-27T02:49:46.344Z,0.00
2019-04-27T02:50:46.557Z,0.00
2019-04-27T02:51:49.398Z,0.00
2019-04-27T02:52:46.995Z,0.00
2019-04-27T02:53:49.288Z,0.00
2019-04-27T02:54:47.264Z,0.00
2019-04-27T02:55:49.729Z,0.00
2019-04-27T02:56:49.990Z,0.00
2019-04-27T02:57:49.984Z,0.00
2019-04-27T02:58:49.594Z,0.00
2019-04-27T02:59:50.239Z,0.00
2019-04-27T03:00:50.180Z,0.00
2019-04-27T03:01:50.314Z,0.00
2019-04-27T03:02:50.978Z,0.00
2019-04-27T03:03:50.292Z,0.00
2019-04-27T03:04:49.835Z,0.00
2019-04-27T03:05:50.307Z,0.00
2019-04-27T03:06:50.117Z,0.00
2019-04-27T03:07:50.321Z,0.00
2019-04-27T03:08:53.915Z,0.00
2019-04-27T03:09:51.052Z,0.00
2019-04-27T03:10:50.534Z,0.00
2019-04-27T03:11:50.474Z,0.00
2019-04-27T03:12:50.672Z,0.00
2019-04-27T03:13:51.931Z,0.00
2019-04-27T03:14:51.079Z,0.00
2019-04-27T03:15:51.275Z,0.00
2019-04-27T03:16:51.493Z,0.00
2019-04-27T03:17:51.698Z,0.00
2019-04-27T03:18:51.882Z,0.00
2019-04-27T03:19:52.369Z,0.00
2019-04-27T03:20:52.305Z,0.00
2019-04-27T03:21:52.520Z,0.00
2019-04-27T03:22:52.756Z,0.00
2019-04-27T03:23:52.876Z,0.00
2019-04-27T03:24:52.986Z,0.00
2019-04-27T03:25:53.081Z,0.00
2019-04-27T03:26:53.278Z,0.00
2019-04-27T03:27:53.466Z,0.00
2019-04-27T03:28:53.668Z,0.00
2019-04-27T03:29:53.873Z,0.00
2019-04-27T03:30:54.051Z,0.00
2019-04-27T03:31:54.685Z,0.00
2019-04-27T03:32:56.828Z,0.00
2019-04-27T03:33:58.922Z,0.00
2019-04-27T03:34:54.905Z,0.00
2019-04-27T03:35:55.034Z,0.00
2019-04-27T03:36:55.231Z,0.00
2019-04-27T03:37:55.448Z,0.00
2019-04-27T03:38:55.527Z,4.00
2019-04-27T03:39:55.725Z,4.00
2019-04-27T03:40:55.909Z,4.00
2019-04-27T03:41:56.108Z,0.00
2019-04-27T03:42:56.322Z,4.00
2019-04-27T03:43:56.442Z,4.00
2019-04-27T03:44:56.498Z,8.00
2019-04-27T03:45:56.735Z,4.00
2019-04-27T03:46:59.342Z,8.00
2019-04-27T03:47:57.086Z,8.00
2019-04-27T03:48:59.778Z,8.00
2019-04-27T03:49:59.873Z,8.00
2019-04-27T03:50:59.557Z,12.00
2019-04-27T03:52:02.672Z,12.00
2019-04-27T03:52:59.927Z,12.00
2019-04-27T03:54:00.461Z,16.00
2019-04-27T03:54:59.813Z,16.00
2019-04-27T03:55:59.956Z,20.00
2019-04-27T03:56:59.062Z,24.00
2019-04-27T03:58:00.155Z,24.00
2019-04-27T03:58:59.793Z,24.00
2019-04-27T03:59:59.819Z,28.00
2019-04-27T04:01:00.030Z,32.00
2019-04-27T04:02:02.480Z,40.00
2019-04-27T04:03:00.677Z,40.00
2019-04-27T04:04:00.093Z,48.00
2019-04-27T04:05:00.229Z,48.00
2019-04-27T04:06:00.507Z,56.00
2019-04-27T04:07:00.608Z,56.00
2019-04-27T04:08:00.792Z,60.00
2019-04-27T04:09:01.016Z,64.00
2019-04-27T04:10:01.228Z,68.00
2019-04-27T04:11:01.448Z,76.00
2019-04-27T04:12:02.298Z,88.00
2019-04-27T04:13:01.965Z,96.00
2019-04-27T04:14:01.984Z,108.00
2019-04-27T04:15:02.042Z,112.00
2019-04-27T04:16:02.272Z,120.00
2019-04-27T04:17:03.039Z,124.00
2019-04-27T04:18:02.460Z,132.00
2019-04-27T04:19:02.668Z,140.00
2019-04-27T04:20:02.874Z,152.00
2019-04-27T04:21:03.057Z,164.00
2019-04-27T04:22:03.285Z,176.00
2019-04-27T04:23:03.616Z,180.00
2019-04-27T04:24:03.642Z,188.00
2019-04-27T04:25:03.852Z,192.00
2019-04-27T04:26:04.044Z,204.00
2019-04-27T04:27:04.239Z,212.00
2019-04-27T04:28:04.451Z,208.00
2019-04-27T04:29:04.599Z,212.00
2019-04-27T04:30:04.660Z,228.00
2019-04-27T04:31:04.888Z,240.00
2019-04-27T04:32:04.989Z,256.00
2019-04-27T04:33:05.183Z,264.00
2019-04-27T04:34:05.384Z,296.00
2019-04-27T04:35:05.599Z,308.00
2019-04-27T04:36:05.825Z,340.00
2019-04-27T04:37:05.924Z,372.00
2019-04-27T04:38:06.121Z,448.00
2019-04-27T04:39:06.365Z,544.00
2019-04-27T04:40:06.458Z,576.00
2019-04-27T04:41:06.648Z,540.00
2019-04-27T04:42:09.796Z,504.00
2019-04-27T04:43:07.067Z,460.00
2019-04-27T04:44:12.148Z,464.00
2019-04-27T04:45:10.606Z,520.00
2019-04-27T04:46:12.810Z,544.00
2019-04-27T04:47:10.401Z,532.00
2019-04-27T04:48:11.423Z,516.00
2019-04-27T04:49:11.515Z,632.00
2019-04-27T04:50:14.938Z,616.00
2019-04-27T04:51:10.264Z,680.00
2019-04-27T04:52:12.212Z,740.00
2019-04-27T04:53:12.636Z,712.00
2019-04-27T04:54:09.528Z,744.00
2019-04-27T04:55:10.159Z,716.00
2019-04-27T04:56:10.637Z,776.00
2019-04-27T04:57:09.376Z,796.00
2019-04-27T04:58:09.506Z,828.00
2019-04-27T04:59:10.056Z,872.00
2019-04-27T05:00:10.043Z,800.00
2019-04-27T05:01:10.033Z,772.00
2019-04-27T05:02:10.784Z,740.00
2019-04-27T05:03:10.240Z,768.00
2019-04-27T05:04:10.324Z,828.00
2019-04-27T05:05:10.573Z,1000.00
2019-04-27T05:06:10.667Z,1116.00
2019-04-27T05:07:10.771Z,1152.00
2019-04-27T05:08:10.988Z,1160.00
2019-04-27T05:09:11.187Z,1240.00
2019-04-27T05:10:11.401Z,1272.00
2019-04-27T05:11:11.583Z,1068.00
2019-04-27T05:12:11.804Z,1200.00
2019-04-27T05:13:16.070Z,1304.00
2019-04-27T05:14:14.428Z,1164.00
2019-04-27T05:15:13.486Z,1144.00
2019-04-27T05:16:13.645Z,1240.00
2019-04-27T05:17:13.671Z,1872.00
2019-04-27T05:18:14.159Z,2260.00
2019-04-27T05:19:14.299Z,2240.00
2019-04-27T05:20:22.471Z,2016.00
2019-04-27T05:21:14.814Z,1860.00
2019-04-27T05:22:16.290Z,2208.00
2019-04-27T05:23:16.263Z,2420.00
2019-04-27T05:24:15.257Z,2748.00
2019-04-27T05:25:13.801Z,3120.00
2019-04-27T05:26:13.910Z,2940.00
2019-04-27T05:27:14.719Z,2892.00
2019-04-27T05:28:14.175Z,2768.00
2019-04-27T05:29:14.367Z,2852.00
2019-04-27T05:30:14.586Z,3048.00
2019-04-27T05:31:14.651Z,3284.00
2019-04-27T05:32:14.852Z,3596.00
2019-04-27T05:33:15.041Z,2840.00
2019-04-27T05:34:15.227Z,3040.00
2019-04-27T05:35:15.459Z,2976.00
2019-04-27T05:36:15.521Z,3404.00
2019-04-27T05:37:15.680Z,3040.00
2019-04-27T05:38:15.865Z,3136.00
2019-04-27T05:39:18.140Z,3148.00
2019-04-27T05:40:16.167Z,3564.00
2019-04-27T05:41:16.411Z,4004.00
2019-04-27T05:42:17.143Z,3920.00
2019-04-27T05:43:16.706Z,3768.00
2019-04-27T05:44:18.372Z,3012.00
2019-04-27T05:45:20.031Z,2824.00
2019-04-27T05:46:19.020Z,2976.00
2019-04-27T05:47:18.967Z,3016.00
2019-04-27T05:48:27.280Z,3196.00
2019-04-27T05:49:18.846Z,3076.00
2019-04-27T05:50:21.835Z,2668.00
2019-04-27T05:51:19.765Z,3172.00
2019-04-27T05:52:18.530Z,3616.00
2019-04-27T05:53:18.951Z,3880.00
2019-04-27T05:54:19.210Z,4244.00
2019-04-27T05:55:19.270Z,4104.00
2019-04-27T05:56:19.276Z,4216.00
2019-04-27T05:57:19.579Z,4908.00
2019-04-27T05:58:19.618Z,3828.00
2019-04-27T05:59:19.956Z,4308.00
2019-04-27T06:00:19.677Z,4368.00
2019-04-27T06:01:19.813Z,4052.00
2019-04-27T06:02:20.370Z,3376.00
2019-04-27T06:03:21.076Z,3748.00
2019-04-27T06:04:20.414Z,3984.00
2019-04-27T06:05:22.739Z,3480.00
2019-04-27T06:06:20.916Z,3204.00
2019-04-27T06:07:20.991Z,3496.00
2019-04-27T06:08:21.226Z,4240.00
2019-04-27T06:09:21.440Z,3300.00
2019-04-27T06:10:21.622Z,4564.00
2019-04-27T06:11:21.837Z,3464.00
2019-04-27T06:12:22.031Z,4148.00
2019-04-27T06:13:22.235Z,4548.00
2019-04-27T06:14:22.450Z,4580.00
2019-04-27T06:15:22.641Z,5220.00
2019-04-27T06:16:22.862Z,5372.00
2019-04-27T06:17:23.095Z,4732.00
2019-04-27T06:18:23.207Z,5408.00
2019-04-27T06:19:23.263Z,5264.00
2019-04-27T06:20:23.458Z,4484.00
2019-04-27T06:21:23.658Z,4200.00
2019-04-27T06:22:23.839Z,4748.00
2019-04-27T06:23:24.247Z,4576.00
2019-04-27T06:24:24.077Z,7132.00
2019-04-27T06:25:24.309Z,5168.00
2019-04-27T06:26:24.500Z,4680.00
2019-04-27T06:27:24.683Z,5148.00
2019-04-27T06:28:24.872Z,6260.00
2019-04-27T06:29:25.072Z,5360.00
2019-04-27T06:30:25.159Z,6324.00
2019-04-27T06:31:25.412Z,5372.00
2019-04-27T06:32:25.500Z,5456.00
2019-04-27T06:33:31.981Z,4648.00
2019-04-27T06:34:25.936Z,5412.00
2019-04-27T06:35:26.012Z,6744.00
2019-04-27T06:36:26.199Z,7112.00
2019-04-27T06:37:26.317Z,7328.00
2019-04-27T06:38:26.498Z,9628.00
2019-04-27T06:39:26.713Z,8336.00
2019-04-27T06:40:26.810Z,7664.00
2019-04-27T06:41:27.017Z,8316.00
2019-04-27T06:42:27.205Z,9240.00
2019-04-27T06:43:29.254Z,8812.00
2019-04-27T06:44:29.234Z,7404.00
2019-04-27T06:45:28.537Z,7848.00
2019-04-27T06:46:28.800Z,8648.00
2019-04-27T06:47:29.459Z,7344.00
2019-04-27T06:48:29.638Z,8940.00
2019-04-27T06:49:29.521Z,8952.00
2019-04-27T06:50:29.572Z,7516.00
2019-04-27T06:51:28.928Z,7792.00
2019-04-27T06:52:29.369Z,8092.00
2019-04-27T06:53:29.215Z,7900.00
2019-04-27T06:54:29.305Z,8760.00
2019-04-27T06:55:29.547Z,7984.00
2019-04-27T06:56:29.746Z,6060.00
2019-04-27T06:57:29.840Z,5336.00
2019-04-27T06:58:30.050Z,7916.00
2019-04-27T06:59:30.408Z,4852.00
2019-04-27T07:00:30.308Z,5100.00
2019-04-27T07:01:30.423Z,5424.00
2019-04-27T07:02:30.611Z,7860.00
2019-04-27T07:03:30.802Z,6972.00
2019-04-27T07:04:31.008Z,5604.00
2019-04-27T07:05:31.194Z,7512.00
2019-04-27T07:06:31.401Z,6112.00
2019-04-27T07:07:31.591Z,7772.00
2019-04-27T07:08:31.808Z,7620.00
2019-04-27T07:09:31.899Z,7340.00
2019-04-27T07:10:32.089Z,7472.00
2019-04-27T07:11:32.336Z,7352.00
2019-04-27T07:12:32.437Z,7700.00
2019-04-27T07:13:33.681Z,7680.00
2019-04-27T07:14:33.627Z,6484.00
2019-04-27T07:15:35.370Z,7248.00
2019-04-27T07:16:35.147Z,7284.00
2019-04-27T07:17:33.280Z,7244.00
2019-04-27T07:18:33.380Z,7868.00
2019-04-27T07:19:33.581Z,8032.00
2019-04-27T07:20:33.842Z,8712.00
2019-04-27T07:21:34.051Z,11940.00
2019-04-27T07:22:34.228Z,8400.00
2019-04-27T07:23:34.290Z,8464.00
2019-04-27T07:24:34.815Z,5596.00
2019-04-27T07:25:34.838Z,5820.00
2019-04-27T07:26:36.381Z,7476.00
2019-04-27T07:27:36.412Z,6528.00
2019-04-27T07:28:35.155Z,7588.00
2019-04-27T07:29:40.323Z,7260.00
2019-04-27T07:30:36.087Z,7008.00
2019-04-27T07:31:39.796Z,7836.00
2019-04-27T07:32:36.215Z,7072.00
2019-04-27T07:33:39.479Z,6860.00
2019-04-27T07:34:38.689Z,7808.00
2019-04-27T07:35:36.815Z,7540.00
2019-04-27T07:36:36.279Z,8632.00
2019-04-27T07:37:36.663Z,7492.00
2019-04-27T07:38:36.679Z,7444.00
2019-04-27T07:39:36.892Z,11848.00
2019-04-27T07:40:39.944Z,8412.00
2019-04-27T07:41:38.783Z,6760.00
2019-04-27T07:42:40.868Z,9152.00
2019-04-27T07:43:39.290Z,9284.00
2019-04-27T07:44:39.063Z,9404.00
2019-04-27T07:45:39.508Z,9140.00
2019-04-27T07:46:38.626Z,10548.00
2019-04-27T07:47:39.351Z,13148.00
2019-04-27T07:48:39.548Z,13948.00
2019-04-27T07:49:39.127Z,13324.00
2019-04-27T07:50:39.142Z,12036.00
2019-04-27T07:51:39.375Z,9924.00
2019-04-27T07:52:40.523Z,10080.00
2019-04-27T07:53:39.582Z,9816.00
2019-04-27T07:54:40.976Z,9008.00
2019-04-27T07:55:39.996Z,9512.00
2019-04-27T07:56:40.295Z,9224.00
2019-04-27T07:57:40.389Z,9652.00
2019-04-27T07:58:40.307Z,10952.00
2019-04-27T07:59:42.042Z,11520.00
2019-04-27T08:00:40.642Z,10932.00
2019-04-27T08:01:40.812Z,9544.00
2019-04-27T08:02:41.058Z,14268.00
2019-04-27T08:03:41.291Z,11928.00
2019-04-27T08:04:41.440Z,9356.00
2019-04-27T08:05:41.516Z,9808.00
2019-04-27T08:06:41.703Z,11392.00
2019-04-27T08:07:41.928Z,9288.00
2019-04-27T08:08:42.006Z,14920.00
2019-04-27T08:09:42.195Z,25248.00
2019-04-27T08:10:42.494Z,17760.00
2019-04-27T08:11:42.707Z,8796.00
2019-04-27T08:12:42.727Z,6548.00
2019-04-27T08:13:42.927Z,6416.00
2019-04-27T08:14:43.137Z,100192.00
2019-04-27T08:15:43.347Z,16772.00
2019-04-27T08:16:43.893Z,19680.00
2019-04-27T08:17:43.704Z,8136.00
2019-04-27T08:18:43.897Z,12900.00
2019-04-27T08:19:44.145Z,10308.00
2019-04-27T08:20:44.324Z,10988.00
2019-04-27T08:21:46.546Z,14852.00
2019-04-27T08:22:44.731Z,63392.00
2019-04-27T08:23:45.179Z,25600.00
2019-04-27T08:24:45.127Z,10672.00
2019-04-27T08:25:45.425Z,53216.00
2019-04-27T08:26:45.435Z,8072.00
2019-04-27T08:27:45.957Z,25280.00
2019-04-27T08:28:45.834Z,10968.00
2019-04-27T08:29:48.688Z,6440.00
2019-04-27T08:30:46.041Z,6308.00
2019-04-27T08:31:46.253Z,9028.00
2019-04-27T08:32:46.450Z,7992.00
2019-04-27T08:33:48.533Z,6732.00
2019-04-27T08:34:46.862Z,4768.00
2019-04-27T08:35:48.955Z,3676.00
2019-04-27T08:36:49.936Z,4688.00
2019-04-27T08:37:49.516Z,5616.00
2019-04-27T08:38:48.903Z,7772.00
2019-04-27T08:39:49.415Z,17120.00
2019-04-27T08:40:49.377Z,100608.00
2019-04-27T08:41:49.483Z,99552.00
2019-04-27T08:42:50.870Z,95072.00
2019-04-27T08:43:48.872Z,100640.00
2019-04-27T08:44:49.724Z,96448.00
2019-04-27T08:45:48.957Z,94624.00
2019-04-27T08:46:49.512Z,94336.00
2019-04-27T08:47:49.826Z,94400.00
2019-04-27T08:48:49.388Z,96768.00
2019-04-27T08:49:49.580Z,97216.00
2019-04-27T08:50:49.763Z,96896.00
2019-04-27T08:51:57.302Z,100096.00
2019-04-27T08:52:51.480Z,98624.00
2019-04-27T08:53:50.372Z,103648.00
2019-04-27T08:54:51.062Z,55776.00
2019-04-27T08:55:52.769Z,11920.00
2019-04-27T08:56:50.991Z,9936.00
2019-04-27T08:57:51.349Z,16484.00
2019-04-27T08:58:51.415Z,12512.00
2019-04-27T08:59:51.610Z,12028.00
2019-04-27T09:00:51.804Z,46080.00
2019-04-27T09:01:52.031Z,95552.00
2019-04-27T09:02:52.341Z,92160.00
2019-04-27T09:03:52.462Z,17632.00
2019-04-27T09:04:52.537Z,34336.00
2019-04-27T09:05:52.763Z,74976.00
2019-04-27T09:06:53.025Z,92480.00
2019-04-27T09:07:53.156Z,13696.00
2019-04-27T09:08:53.242Z,11980.00
2019-04-27T09:09:53.480Z,85664.00
2019-04-27T09:10:53.553Z,20288.00
2019-04-27T09:11:53.765Z,94464.00
2019-04-27T09:12:53.978Z,86208.00
2019-04-27T09:13:54.083Z,88960.00
2019-04-27T09:14:54.278Z,10184.00
2019-04-27T09:15:54.519Z,80640.00
2019-04-27T09:17:00.088Z,86720.00
2019-04-27T09:17:54.964Z,86368.00
2019-04-27T09:18:55.233Z,86016.00
2019-04-27T09:19:55.337Z,87744.00
2019-04-27T09:20:55.540Z,87072.00
2019-04-27T09:21:55.741Z,84480.00
2019-04-27T09:22:55.999Z,88576.00
2019-04-27T09:23:56.068Z,83552.00
2019-04-27T09:24:56.276Z,77344.00
2019-04-27T09:25:56.480Z,8916.00
2019-04-27T09:26:56.681Z,8820.00
2019-04-27T09:27:56.865Z,12424.00
2019-04-27T09:28:57.082Z,10192.00
2019-04-27T09:29:58.839Z,12496.00
2019-04-27T09:30:58.621Z,10736.00
2019-04-27T09:32:01.505Z,9096.00
2019-04-27T09:32:57.811Z,7296.00
2019-04-27T09:33:58.024Z,6812.00
2019-04-27T09:34:58.384Z,5772.00
2019-04-27T09:35:58.402Z,4992.00
2019-04-27T09:36:58.979Z,4740.00
2019-04-27T09:37:58.781Z,4760.00
2019-04-27T09:38:59.077Z,5272.00
2019-04-27T09:39:59.120Z,5744.00
2019-04-27T09:40:59.315Z,5884.00
2019-04-27T09:41:59.537Z,5476.00
2019-04-27T09:42:59.736Z,5324.00
2019-04-27T09:44:02.436Z,4876.00
2019-04-27T09:45:00.176Z,4428.00
2019-04-27T09:46:00.520Z,4856.00
2019-04-27T09:47:00.594Z,5284.00
2019-04-27T09:48:00.831Z,5444.00
2019-04-27T09:49:01.056Z,7040.00
2019-04-27T09:50:01.152Z,7120.00
2019-04-27T09:51:01.356Z,6424.00
2019-04-27T09:52:01.469Z,4684.00
2019-04-27T09:53:01.706Z,3488.00
2019-04-27T09:54:01.802Z,3716.00
2019-04-27T09:55:01.993Z,3396.00
2019-04-27T09:56:02.406Z,2528.00
2019-04-27T09:57:02.380Z,2168.00
2019-04-27T09:58:02.564Z,2416.00
2019-04-27T09:59:02.900Z,2228.00
2019-04-27T10:00:02.879Z,2036.00
2019-04-27T10:01:03.063Z,1940.00
2019-04-27T10:02:03.415Z,1952.00
2019-04-27T10:03:03.918Z,2208.00
2019-04-27T10:04:03.981Z,2692.00
2019-04-27T10:05:05.809Z,3664.00
2019-04-27T10:06:05.769Z,4180.00
2019-04-27T10:07:06.065Z,3840.00
2019-04-27T10:08:06.186Z,3620.00
2019-04-27T10:09:04.466Z,3524.00
2019-04-27T10:10:06.345Z,3072.00
2019-04-27T10:11:05.945Z,3284.00
2019-04-27T10:12:05.344Z,2980.00
2019-04-27T10:13:06.843Z,2664.00
2019-04-27T10:14:05.895Z,2396.00
2019-04-27T10:15:06.170Z,2024.00
2019-04-27T10:16:05.815Z,1984.00
2019-04-27T10:17:06.020Z,2300.00
2019-04-27T10:18:06.513Z,2168.00
2019-04-27T10:19:06.346Z,2804.00
2019-04-27T10:20:06.562Z,3500.00
2019-04-27T10:21:06.773Z,3812.00
2019-04-27T10:22:07.082Z,3944.00
2019-04-27T10:23:07.225Z,3308.00
2019-04-27T10:24:07.300Z,3260.00
2019-04-27T10:25:07.522Z,3968.00
2019-04-27T10:26:07.713Z,3664.00
2019-04-27T10:27:08.149Z,3032.00
2019-04-27T10:28:08.126Z,2824.00
2019-04-27T10:29:08.331Z,2260.00
2019-04-27T10:30:08.430Z,2004.00
2019-04-27T10:31:08.666Z,2016.00
2019-04-27T10:32:08.853Z,1824.00
2019-04-27T10:33:09.089Z,2000.00
2019-04-27T10:34:09.193Z,2116.00
2019-04-27T10:35:09.281Z,2024.00
2019-04-27T10:36:09.503Z,2112.00
2019-04-27T10:37:09.699Z,2008.00
2019-04-27T10:38:09.892Z,1888.00
2019-04-27T10:39:13.014Z,2312.00
2019-04-27T10:40:10.321Z,2476.00
2019-04-27T10:41:10.521Z,2552.00
2019-04-27T10:42:10.771Z,2576.00
2019-04-27T10:43:10.836Z,2508.00
2019-04-27T10:44:11.115Z,2376.00
2019-04-27T10:45:11.217Z,2208.00
2019-04-27T10:46:11.473Z,2016.00
2019-04-27T10:47:11.521Z,1600.00
2019-04-27T10:48:11.615Z,1208.00
2019-04-27T10:49:11.775Z,936.00
2019-04-27T10:50:11.846Z,788.00
2019-04-27T10:51:12.038Z,712.00
2019-04-27T10:52:12.231Z,708.00
2019-04-27T10:53:12.449Z,724.00
2019-04-27T10:54:12.588Z,836.00
2019-04-27T10:55:12.794Z,920.00
2019-04-27T10:56:12.989Z,1132.00
2019-04-27T10:57:13.203Z,1184.00
2019-04-27T10:58:13.278Z,1420.00
2019-04-27T10:59:13.537Z,1992.00
2019-04-27T11:00:13.638Z,2236.00
2019-04-27T11:01:15.546Z,1860.00
2019-04-27T11:02:13.892Z,1740.00
2019-04-27T11:03:14.108Z,2100.00
2019-04-27T11:04:15.928Z,3292.00
2019-04-27T11:05:14.535Z,4368.00
2019-04-27T11:06:16.008Z,5156.00
2019-04-27T11:07:15.832Z,5008.00
2019-04-27T11:08:16.682Z,3884.00
2019-04-27T11:09:16.327Z,2712.00
2019-04-27T11:10:16.302Z,2148.00
2019-04-27T11:11:15.782Z,2436.00
2019-04-27T11:12:15.976Z,3432.00
2019-04-27T11:13:16.653Z,4328.00
2019-04-27T11:14:16.419Z,5304.00
2019-04-27T11:15:16.504Z,6208.00
2019-04-27T11:16:16.691Z,7040.00
2019-04-27T11:17:16.908Z,7692.00
2019-04-27T11:18:17.468Z,7252.00
2019-04-27T11:19:17.271Z,5956.00
2019-04-27T11:20:17.427Z,5004.00
2019-04-27T11:21:17.503Z,4616.00
2019-04-27T11:22:17.760Z,4776.00
2019-04-27T11:23:17.839Z,5076.00
2019-04-27T11:24:18.058Z,4992.00
2019-04-27T11:25:18.263Z,4600.00
2019-04-27T11:26:18.499Z,4512.00
2019-04-27T11:27:18.587Z,4628.00
2019-04-27T11:28:18.671Z,4796.00
2019-04-27T11:29:18.861Z,4660.00
2019-04-27T11:30:19.107Z,4824.00
2019-04-27T11:31:19.178Z,5192.00
2019-04-27T11:32:19.384Z,5464.00
2019-04-27T11:33:19.646Z,5704.00
2019-04-27T11:34:19.713Z,5932.00
2019-04-27T11:35:19.973Z,5948.00
2019-04-27T11:36:20.055Z,5856.00
2019-04-27T11:37:20.343Z,5524.00
2019-04-27T11:38:20.364Z,5368.00
2019-04-27T11:39:21.275Z,5692.00
2019-04-27T11:40:20.851Z,6004.00
2019-04-27T11:41:20.953Z,6324.00
2019-04-27T11:42:21.227Z,6468.00
2019-04-27T11:43:21.282Z,6752.00
2019-04-27T11:44:21.632Z,6936.00
2019-04-27T11:45:21.625Z,6660.00
2019-04-27T11:46:21.715Z,6136.00
2019-04-27T11:47:21.972Z,5240.00
2019-04-27T11:48:22.062Z,4196.00
2019-04-27T11:49:22.317Z,3864.00
2019-04-27T11:50:22.397Z,4788.00
2019-04-27T11:51:22.489Z,4684.00
2019-04-27T11:52:22.731Z,4496.00
2019-04-27T11:53:23.243Z,5364.00
2019-04-27T11:54:25.573Z,5140.00
2019-04-27T11:55:23.139Z,5936.00
2019-04-27T11:56:23.326Z,7984.00
2019-04-27T11:57:23.524Z,9904.00
2019-04-27T11:58:23.733Z,11056.00
2019-04-27T11:59:23.937Z,11476.00
2019-04-27T12:00:24.158Z,11404.00
2019-04-27T12:01:24.342Z,12300.00
2019-04-27T12:02:25.783Z,11768.00
2019-04-27T12:03:24.796Z,10748.00
2019-04-27T12:04:26.307Z,10424.00
2019-04-27T12:05:26.087Z,10372.00
2019-04-27T12:06:25.848Z,8892.00
2019-04-27T12:07:27.795Z,8228.00
2019-04-27T12:08:26.467Z,8196.00
2019-04-27T12:09:25.653Z,7852.00
2019-04-27T12:10:26.376Z,6256.00
2019-04-27T12:11:26.188Z,4620.00
2019-04-27T12:12:26.307Z,3372.00
2019-04-27T12:13:26.430Z,3404.00
2019-04-27T12:14:26.624Z,3808.00
2019-04-27T12:15:26.822Z,4316.00
2019-04-27T12:16:27.023Z,4348.00
2019-04-27T12:17:29.195Z,4476.00
2019-04-27T12:18:27.420Z,4748.00
2019-04-27T12:19:27.639Z,5344.00
2019-04-27T12:20:27.834Z,6124.00
2019-04-27T12:21:28.049Z,6860.00
2019-04-27T12:22:28.289Z,7240.00
2019-04-27T12:23:35.576Z,7372.00
2019-04-27T12:24:28.562Z,7444.00
2019-04-27T12:25:28.756Z,7448.00
2019-04-27T12:26:28.952Z,7348.00
2019-04-27T12:27:29.178Z,7120.00
2019-04-27T12:28:29.378Z,6828.00
2019-04-27T12:29:30.434Z,6412.00